Time;durP1;ratioP1;P1;durP2;ratioP2;P2;SDS_P1;SDS_P2;PMS_P1;PMS_P2;Temp;Humidity;BMP_temperature;BMP_pressure;BME280_temperature;BME280_humidity;BME280_pressure;Samples;Min_cycle;Max_cycle;Signal;HPM_P1;HPM_P2
2023/05/20 00:02:22;;;;;;;;;;;11.80;90.80;;;;;;5012660;28;20017;-81
2023/05/20 00:04:49;;;;;;;;;;;11.70;90.80;;;;;;5032594;28;19945;-80
2023/05/20 00:07:18;;;;;;;;;;;11.70;90.30;;;;;;5041848;28;19975;-81
2023/05/20 00:09:45;;;;;;;;;;;11.70;91.00;;;;;;5033294;28;19960;-81
2023/05/20 00:12:12;;;;;;;;;;;11.70;90.80;;;;;;5035407;28;20011;-81
2023/05/20 00:14:39;;;;;;;;;;;11.60;90.80;;;;;;5035397;28;19983;-81
2023/05/20 00:17:06;;;;;;;;;;;11.60;90.60;;;;;;5021377;28;20351;-81
2023/05/20 00:19:33;;;;;;;;;;;11.60;91.30;;;;;;5046296;28;19971;-81
2023/05/20 00:22:00;;;;;;;;;;;11.50;91.30;;;;;;5033024;28;20231;-81
2023/05/20 00:24:28;;;;;;;;;;;11.50;90.90;;;;;;5034951;28;20003;-81
2023/05/20 00:26:55;;;;;;;;;;;11.40;91.30;;;;;;5035086;28;20055;-81
2023/05/20 00:29:22;;;;;;;;;;;11.40;91.70;;;;;;5034602;28;19933;-82
2023/05/20 00:31:52;;;;;;;;;;;11.40;91.80;;;;;;5033994;28;20699;-81
2023/05/20 00:34:19;;;;;;;;;;;11.30;91.80;;;;;;5032657;28;20304;-81
2023/05/20 00:36:46;;;;;;;;;;;11.20;91.20;;;;;;5031853;28;19925;-80
2023/05/20 00:39:13;;;;;;;;;;;11.10;92.00;;;;;;5035327;28;20637;-80
2023/05/20 00:41:42;;;;;;;;;;;11.10;92.10;;;;;;5032398;28;19979;-81
2023/05/20 00:44:08;;;;;;;;;;;11.10;92.30;;;;;;5032710;28;19986;-80
2023/05/20 00:46:36;;;;;;;;;;;11.00;91.90;;;;;;5032673;28;19956;-80
2023/05/20 00:49:02;;;;;;;;;;;9.40;91.70;;;;;;5032811;28;19929;-80
2023/05/20 00:51:29;;;;;;;;;;;10.90;92.60;;;;;;5037395;28;19936;-82
2023/05/20 00:53:57;;;;;;;;;;;11.00;92.30;;;;;;5032279;28;19929;-80
2023/05/20 00:56:25;;;;;;;;;;;12.60;93.40;;;;;;5032782;28;19950;-81
2023/05/20 00:58:53;;;;;;;;;;;10.90;92.80;;;;;;5031857;28;19972;-80
2023/05/20 01:01:20;;;;;;;;;;;10.90;92.90;;;;;;5034462;28;19975;-80
2023/05/20 01:03:47;;;;;;;;;;;10.90;93.00;;;;;;5038925;28;20391;-80
2023/05/20 01:06:15;;;;;;;;;;;10.90;93.10;;;;;;5038873;28;19939;-79
2023/05/20 01:08:41;;;;;;;;;;;10.80;92.90;;;;;;5033957;28;19940;-79
2023/05/20 01:11:09;;;;;;;;;;;10.80;93.40;;;;;;5031225;28;20376;-79
2023/05/20 01:13:39;;;;;;;;;;;10.70;93.60;;;;;;5031430;28;20735;-80
2023/05/20 01:16:08;;;;;;;;;;;10.60;93.80;;;;;;5032890;28;20422;-80
2023/05/20 01:18:36;;;;;;;;;;;10.60;93.80;;;;;;5042531;28;19925;-80
2023/05/20 01:21:05;;;;;;;;;;;10.50;94.20;;;;;;5017142;28;19933;-80
2023/05/20 01:23:37;;;;;;;;;;;10.50;94.40;;;;;;5021052;28;19972;-80
2023/05/20 01:26:05;;;;;;;;;;;10.40;94.40;;;;;;5002051;28;19930;-80
2023/05/20 01:28:32;;;;;;;;;;;10.30;94.10;;;;;;5026218;28;19933;-80
2023/05/20 01:31:00;;;;;;;;;;;10.30;94.00;;;;;;5041281;28;20023;-80
2023/05/20 01:33:28;;;;;;;;;;;10.20;94.80;;;;;;5029927;28;19952;-80
2023/05/20 01:35:56;;;;;;;;;;;10.00;94.90;;;;;;5038766;28;19925;-80
2023/05/20 01:38:23;;;;;;;;;;;10.20;94.70;;;;;;5020517;28;20300;-81
2023/05/20 01:40:52;;;;;;;;;;;10.20;95.70;;;;;;5019590;28;20313;-81
2023/05/20 01:43:19;;;;;;;;;;;10.10;95.50;;;;;;5023277;28;20003;-80
2023/05/20 01:45:46;;;;;;;;;;;10.10;95.80;;;;;;5038563;28;19925;-80
2023/05/20 01:48:13;;;;;;;;;;;10.00;95.40;;;;;;5017234;28;20457;-79
2023/05/20 01:50:41;;;;;;;;;;;10.00;96.20;;;;;;5023159;28;20289;-79
2023/05/20 01:53:08;;;;;;;;;;;10.00;96.40;;;;;;5020224;28;19913;-79
2023/05/20 01:55:35;;;;;;;;;;;9.90;96.20;;;;;;5018908;28;20340;-79
2023/05/20 01:58:07;;;;;;;;;;;9.90;96.70;;;;;;5037865;28;19929;-79
2023/05/20 02:00:33;;;;;;;;;;;9.80;97.40;;;;;;5016973;28;19929;-80
2023/05/20 02:03:02;;;;;;;;;;;9.70;97.20;;;;;;5035298;28;20381;-80
2023/05/20 02:05:29;;;;;;;;;;;;;;;;;;5036281;28;20023;-79
2023/05/20 02:07:56;;;;;;;;;;;9.70;97.20;;;;;;5017632;28;19925;-80
2023/05/20 02:10:23;;;;;;;;;;;9.60;97.70;;;;;;5035642;28;20416;-79
2023/05/20 02:12:50;;;;;;;;;;;9.60;97.60;;;;;;5027157;28;20305;-80
2023/05/20 02:15:18;;;;;;;;;;;9.60;98.70;;;;;;5036648;28;19936;-79
2023/05/20 02:17:46;;;;;;;;;;;11.70;98.60;;;;;;5036849;28;20316;-80
2023/05/20 02:20:15;;;;;;;;;;;9.60;99.10;;;;;;5022255;28;20348;-80
2023/05/20 02:22:42;;;;;;;;;;;9.50;98.80;;;;;;5053044;28;20552;-79
2023/05/20 02:25:10;;;;;;;;;;;9.50;99.50;;;;;;5020299;28;19971;-79
2023/05/20 02:27:38;;;;;;;;;;;11.60;99.50;;;;;;5016283;28;19960;-79
2023/05/20 02:30:06;;;;;;;;;;;9.40;99.90;;;;;;5018517;28;19929;-80
2023/05/20 02:32:34;;;;;;;;;;;9.40;99.90;;;;;;5017975;28;19929;-81
2023/05/20 02:35:01;;;;;;;;;;;9.40;99.90;;;;;;5008279;28;19913;-80
2023/05/20 02:37:28;;;;;;;;;;;10.60;99.90;;;;;;5019538;28;19945;-78
2023/05/20 02:39:56;;;;;;;;;;;9.30;99.90;;;;;;5017058;28;20373;-79
2023/05/20 02:42:23;;;;;;;;;;;8.50;99.90;;;;;;5014168;28;19965;-81
2023/05/20 02:44:52;;;;;;;;;;;9.30;99.90;;;;;;5003339;28;19975;-81
2023/05/20 02:47:19;;;;;;;;;;;9.20;99.90;;;;;;5020255;28;19944;-82
2023/05/20 02:49:47;;;;;;;;;;;9.20;99.90;;;;;;5021021;28;20012;-81
2023/05/20 02:52:14;;;;;;;;;;;6.70;99.90;;;;;;5013012;28;20347;-81
2023/05/20 02:54:42;;;;;;;;;;;9.20;99.90;;;;;;5020017;28;19956;-81
2023/05/20 02:57:09;;;;;;;;;;;9.10;99.90;;;;;;5019497;28;19933;-81
2023/05/20 02:59:36;;;;;;;;;;;9.10;99.90;;;;;;5015699;28;20344;-81
2023/05/20 03:02:03;;;;;;;;;;;9.10;99.90;;;;;;5018585;28;20675;-81
2023/05/20 03:04:30;;;;;;;;;;;9.10;99.90;;;;;;5016507;28;19951;-80
2023/05/20 03:06:59;;;;;;;;;;;9.10;99.90;;;;;;5015634;28;19984;-80
2023/05/20 03:09:26;;;;;;;;;;;9.10;99.90;;;;;;5004941;28;19980;-80
2023/05/20 03:11:53;;;;;;;;;;;9.10;99.90;;;;;;4998961;28;19930;-81
2023/05/20 03:14:20;;;;;;;;;;;9.10;99.90;;;;;;4999027;28;19929;-80
2023/05/20 03:16:47;;;;;;;;;;;9.10;99.90;;;;;;5018012;28;19913;-80
2023/05/20 03:19:15;;;;;;;;;;;9.20;99.90;;;;;;5051447;28;20028;-80
2023/05/20 03:21:42;;;;;;;;;;;9.20;99.90;;;;;;5016361;28;20416;-80
2023/05/20 03:24:10;;;;;;;;;;;9.30;99.90;;;;;;5035799;28;19931;-80
2023/05/20 03:26:41;;;;;;;;;;;9.40;99.90;;;;;;5037149;28;19924;-80
2023/05/20 03:29:09;;;;;;;;;;;9.40;99.90;;;;;;4997407;28;19921;-80
2023/05/20 03:31:36;;;;;;;;;;;9.40;99.90;;;;;;4996868;28;19930;-81
2023/05/20 03:34:03;;;;;;;;;;;9.50;99.90;;;;;;5006369;28;19925;-80
2023/05/20 03:36:30;;;;;;;;;;;9.60;99.90;;;;;;5008022;28;19933;-80
2023/05/20 03:38:58;;;;;;;;;;;9.60;99.90;;;;;;5037539;28;19963;-81
2023/05/20 03:41:26;;;;;;;;;;;9.80;99.90;;;;;;5036102;28;19935;-81
2023/05/20 03:43:53;;;;;;;;;;;9.90;99.90;;;;;;5037544;28;19951;-81
2023/05/20 03:46:20;;;;;;;;;;;9.90;99.90;;;;;;5030806;28;20393;-80
2023/05/20 03:48:47;;;;;;;;;;;9.90;99.90;;;;;;5016491;28;19940;-81
2023/05/20 03:51:14;;;;;;;;;;;9.90;99.90;;;;;;5038968;28;20533;-80
2023/05/20 03:53:41;;;;;;;;;;;10.10;99.90;;;;;;5039546;28;19935;-80
2023/05/20 03:56:08;;;;;;;;;;;10.10;99.90;;;;;;5024648;28;19936;-80
2023/05/20 03:58:39;;;;;;;;;;;10.20;99.90;;;;;;5035377;28;19933;-80
2023/05/20 04:01:06;;;;;;;;;;;10.30;99.90;;;;;;5025628;28;19956;-79
2023/05/20 04:03:34;;;;;;;;;;;10.30;99.90;;;;;;5021886;28;19929;-81
2023/05/20 04:06:01;;;;;;;;;;;10.30;99.90;;;;;;5015071;28;19933;-81
2023/05/20 04:08:28;;;;;;;;;;;10.50;99.90;;;;;;5029530;28;19925;-80
2023/05/20 04:10:56;;;;;;;;;;;10.60;99.90;;;;;;5018505;28;20631;-80
2023/05/20 04:13:24;;;;;;;;;;;10.60;99.90;;;;;;5017572;28;19940;-80
2023/05/20 04:15:53;;;;;;;;;;;10.80;99.90;;;;;;5018608;28;19953;-79
2023/05/20 04:18:20;;;;;;;;;;;10.80;99.90;;;;;;5018979;28;20031;-79
2023/05/20 04:20:54;;;;;;;;;;;10.90;99.90;;;;;;5041247;28;19929;-78
2023/05/20 04:23:20;;;;;;;;;;;10.90;99.90;;;;;;5048934;28;20007;-79
2023/05/20 04:25:48;;;;;;;;;;;11.00;99.90;;;;;;5032191;28;20249;-79
2023/05/20 04:28:15;;;;;;;;;;;11.10;99.90;;;;;;5031153;28;20000;-78
2023/05/20 04:30:43;;;;;;;;;;;11.10;99.90;;;;;;5030876;28;19936;-78
2023/05/20 04:33:13;;;;;;;;;;;11.20;99.90;;;;;;5031932;28;19975;-79
2023/05/20 04:35:41;;;;;;;;;;;11.20;99.90;;;;;;5032551;28;20517;-79
2023/05/20 04:38:09;;;;;;;;;;;11.30;99.90;;;;;;5032328;28;19929;-79
2023/05/20 04:40:36;;;;;;;;;;;11.40;99.90;;;;;;5033432;28;19941;-79
2023/05/20 04:43:03;;;;;;;;;;;11.40;99.90;;;;;;5032730;28;19933;-79
2023/05/20 04:45:32;;;;;;;;;;;11.50;99.90;;;;;;5032739;28;19929;-79
2023/05/20 04:47:59;;;;;;;;;;;11.50;99.90;;;;;;5031221;28;20374;-81
2023/05/20 04:50:28;;;;;;;;;;;11.50;99.90;;;;;;5033622;28;19948;-79
2023/05/20 04:52:55;;;;;;;;;;;11.60;99.90;;;;;;5033734;28;19929;-80
2023/05/20 04:55:23;;;;;;;;;;;11.70;99.90;;;;;;5035707;28;20368;-80
2023/05/20 04:57:50;;;;;;;;;;;11.80;99.90;;;;;;5049157;28;20001;-79
2023/05/20 05:00:17;;;;;;;;;;;11.80;99.90;;;;;;5042468;28;19939;-79
2023/05/20 05:02:44;;;;;;;;;;;11.80;99.90;;;;;;5035488;28;19925;-80
2023/05/20 05:05:11;;;;;;;;;;;11.90;99.90;;;;;;5033543;28;19935;-79
2023/05/20 05:07:39;;;;;;;;;;;;;;;;;;5030798;28;19979;-79
2023/05/20 05:10:08;;;;;;;;;;;12.10;99.90;;;;;;5034962;28;19937;-81
2023/05/20 05:12:35;;;;;;;;;;;12.30;99.90;;;;;;5037397;28;19936;-79
2023/05/20 05:15:04;;;;;;;;;;;12.40;99.90;;;;;;5033116;28;19929;-79
2023/05/20 05:17:31;;;;;;;;;;;12.60;99.90;;;;;;5033989;28;19955;-79
2023/05/20 05:19:58;;;;;;;;;;;12.60;99.90;;;;;;5017743;28;20345;-81
2023/05/20 05:22:27;;;;;;;;;;;12.90;99.90;;;;;;5021977;28;19936;-80
2023/05/20 05:24:55;;;;;;;;;;;13.10;99.90;;;;;;5027723;28;19944;-80
2023/05/20 05:27:23;;;;;;;;;;;13.20;99.90;;;;;;5023922;28;20027;-80
2023/05/20 05:29:50;;;;;;;;;;;13.30;99.90;;;;;;5030166;28;19931;-80
2023/05/20 05:32:18;;;;;;;;;;;14.10;99.90;;;;;;5020294;28;20285;-78
2023/05/20 05:34:45;;;;;;;;;;;15.00;99.90;;;;;;5021548;28;19925;-80
2023/05/20 05:37:13;;;;;;;;;;;15.90;99.90;;;;;;5021565;28;20339;-80
2023/05/20 05:39:40;;;;;;;;;;;17.90;99.90;;;;;;5021285;28;19925;-81
2023/05/20 05:42:07;;;;;;;;;;;18.40;99.90;;;;;;5022505;28;19956;-79
2023/05/20 05:44:36;;;;;;;;;;;19.20;99.90;;;;;;5019675;28;19929;-79
2023/05/20 05:47:05;;;;;;;;;;;20.30;99.90;;;;;;5027313;28;19933;-79
2023/05/20 05:49:32;;;;;;;;;;;20.70;99.90;;;;;;5024554;28;19929;-79
2023/05/20 05:51:59;;;;;;;;;;;20.80;99.90;;;;;;5021143;28;20428;-80
2023/05/20 05:54:26;;;;;;;;;;;20.80;99.90;;;;;;5020441;28;19929;-80
2023/05/20 05:56:55;;;;;;;;;;;20.70;99.90;;;;;;5037802;28;19943;-80
2023/05/20 05:59:22;;;;;;;;;;;20.80;99.90;;;;;;5039786;28;19935;-81
2023/05/20 06:01:51;;;;;;;;;;;21.00;99.90;;;;;;5038597;28;19935;-81
2023/05/20 06:04:18;;;;;;;;;;;21.00;99.90;;;;;;5024070;28;19960;-81
2023/05/20 06:06:45;;;;;;;;;;;21.20;99.20;;;;;;5035936;28;20086;-82
2023/05/20 06:09:12;;;;;;;;;;;21.70;99.30;;;;;;5026451;28;19929;-83
2023/05/20 06:11:41;;;;;;;;;;;22.00;98.00;;;;;;5034055;28;19975;-80
2023/05/20 06:14:09;;;;;;;;;;;22.20;97.70;;;;;;5044212;28;19929;-80
2023/05/20 06:16:37;;;;;;;;;;;22.70;96.80;;;;;;5031234;28;19935;-79
2023/05/20 06:19:07;;;;;;;;;;;22.70;96.60;;;;;;5033648;28;20135;-81
2023/05/20 06:21:35;;;;;;;;;;;22.70;96.20;;;;;;5036289;28;19933;-80
2023/05/20 06:24:02;;;;;;;;;;;23.00;96.70;;;;;;5039246;28;19929;-80
2023/05/20 06:26:30;;;;;;;;;;;23.30;93.50;;;;;;5043660;28;20043;-81
2023/05/20 06:28:58;;;;;;;;;;;23.30;93.70;;;;;;5043254;28;19949;-81
2023/05/20 06:31:26;;;;;;;;;;;22.90;93.70;;;;;;5054907;28;20063;-80
2023/05/20 06:33:56;;;;;;;;;;;22.20;93.30;;;;;;5044991;28;19939;-80
2023/05/20 06:36:24;;;;;;;;;;;21.80;94.10;;;;;;5039475;28;20035;-79
2023/05/20 06:38:51;;;;;;;;;;;21.90;94.10;;;;;;5039818;28;20016;-79
2023/05/20 06:41:20;;;;;;;;;;;22.10;94.60;;;;;;5039120;28;20016;-80
2023/05/20 06:43:51;;;;;;;;;;;21.50;93.80;;;;;;5039226;28;19929;-78
2023/05/20 06:46:49;;;;;;;;;;;21.60;94.40;;;;;;5042747;28;20350;-79
2023/05/20 06:49:16;;;;;;;;;;;21.60;94.80;;;;;;5033085;28;19929;-80
2023/05/20 06:51:45;;;;;;;;;;;21.40;94.50;;;;;;5034414;28;19951;-78
2023/05/20 06:54:12;;;;;;;;;;;21.40;94.30;;;;;;5032554;28;19929;-79
2023/05/20 06:56:39;;;;;;;;;;;22.00;94.10;;;;;;5036431;28;19924;-79
2023/05/20 06:59:07;;;;;;;;;;;22.20;94.50;;;;;;5034375;28;19968;-79
2023/05/20 07:01:35;;;;;;;;;;;22.30;94.40;;;;;;5039312;28;19932;-80
2023/05/20 07:04:04;;;;;;;;;;;21.60;93.20;;;;;;5048503;28;19980;-79
2023/05/20 07:06:33;;;;;;;;;;;20.50;94.10;;;;;;5034615;28;19956;-82
2023/05/20 07:09:01;;;;;;;;;;;20.40;94.40;;;;;;5037333;28;19928;-85
2023/05/20 07:11:29;;;;;;;;;;;20.80;95.30;;;;;;5037189;28;19944;-84
2023/05/20 07:13:57;;;;;;;;;;;22.80;95.00;;;;;;5042424;28;20331;-80
2023/05/20 07:16:25;;;;;;;;;;;;;;;;;;5042765;28;19965;-81
2023/05/20 07:18:55;;;;;;;;;;;24.30;93.40;;;;;;5037632;28;19963;-79
2023/05/20 07:21:22;;;;;;;;;;;23.30;92.50;;;;;;5037416;28;19967;-83
2023/05/20 07:24:13;;;;;;;;;;;22.70;91.80;;;;;;5031162;28;19941;-78
2023/05/20 07:26:40;;;;;;;;;;;20.20;92.80;;;;;;5019984;28;19929;-79
2023/05/20 07:29:09;;;;;;;;;;;20.20;93.30;;;;;;5016650;28;19936;-79
2023/05/20 07:31:40;;;;;;;;;;;19.90;94.00;;;;;;5026630;28;20438;-79
2023/05/20 07:34:08;;;;;;;;;;;19.30;94.30;;;;;;5029504;28;19935;-79
2023/05/20 07:36:35;;;;;;;;;;;19.00;95.40;;;;;;5005952;28;19933;-81
2023/05/20 07:39:05;;;;;;;;;;;19.00;95.70;;;;;;5039650;28;19975;-80
2023/05/20 07:41:37;;;;;;;;;;;18.70;96.00;;;;;;5029204;28;19929;-80
2023/05/20 07:44:07;;;;;;;;;;;18.80;96.30;;;;;;5017705;28;20400;-80
2023/05/20 07:46:40;;;;;;;;;;;18.60;96.30;;;;;;5021852;28;19936;-81
2023/05/20 07:49:09;;;;;;;;;;;19.10;96.70;;;;;;5028815;28;20008;-80
2023/05/20 07:51:39;;;;;;;;;;;18.80;96.20;;;;;;5032838;28;19929;-80
2023/05/20 07:54:06;;;;;;;;;;;18.60;96.30;;;;;;5051394;28;19978;-79
2023/05/20 07:56:33;;;;;;;;;;;18.50;96.90;;;;;;5022263;28;19925;-79
2023/05/20 07:59:03;;;;;;;;;;;18.50;97.20;;;;;;5027108;28;19976;-80
2023/05/20 08:01:36;;;;;;;;;;;18.40;96.90;;;;;;5030008;28;19929;-82
2023/05/20 08:04:05;;;;;;;;;;;18.30;96.90;;;;;;5038028;28;19936;-80
2023/05/20 08:06:32;;;;;;;;;;;18.10;97.30;;;;;;5019837;28;19925;-79
2023/05/20 08:08:59;;;;;;;;;;;18.10;97.60;;;;;;5035710;28;19929;-79
2023/05/20 08:11:31;;;;;;;;;;;18.10;97.80;;;;;;5037868;28;20044;-79
2023/05/20 08:13:58;;;;;;;;;;;18.00;97.90;;;;;;5035412;28;19936;-80
2023/05/20 08:16:29;;;;;;;;;;;18.10;98.40;;;;;;5036389;28;19960;-79
2023/05/20 08:18:56;;;;;;;;;;;18.00;98.50;;;;;;5024378;28;19929;-80
2023/05/20 08:21:26;;;;;;;;;;;18.20;98.70;;;;;;5034100;28;19925;-78
2023/05/20 08:23:54;;;;;;;;;;;18.50;98.50;;;;;;5015185;28;20009;-79
2023/05/20 08:26:22;;;;;;;;;;;18.60;98.40;;;;;;5021449;28;19929;-81
2023/05/20 08:28:51;;;;;;;;;;;18.80;98.10;;;;;;5048745;28;19988;-81
2023/05/20 08:31:25;;;;;;;;;;;18.80;97.80;;;;;;5058234;28;19935;-82
2023/05/20 08:33:54;;;;;;;;;;;18.70;98.20;;;;;;5042919;28;19925;-81
2023/05/20 08:36:22;;;;;;;;;;;20.10;99.00;;;;;;5038432;28;19948;-79
2023/05/20 08:38:49;;;;;;;;;;;18.80;98.20;;;;;;5034008;28;19936;-80
2023/05/20 08:41:17;;;;;;;;;;;18.80;98.60;;;;;;5035140;28;19929;-79
2023/05/20 08:43:46;;;;;;;;;;;19.10;98.70;;;;;;5031674;28;19929;-80
2023/05/20 08:46:14;;;;;;;;;;;19.20;98.40;;;;;;5040423;28;19925;-85
2023/05/20 08:48:43;;;;;;;;;;;19.50;98.60;;;;;;5045505;28;19940;-86
2023/05/20 08:51:13;;;;;;;;;;;20.00;98.40;;;;;;5047002;28;19932;-86
2023/05/20 08:53:44;;;;;;;;;;;20.00;98.00;;;;;;5040140;28;19925;-87
2023/05/20 08:56:13;;;;;;;;;;;19.90;97.80;;;;;;5045061;28;19963;-85
2023/05/20 08:58:41;;;;;;;;;;;20.00;98.10;;;;;;5042107;28;19929;-85
2023/05/20 09:01:09;;;;;;;;;;;20.00;97.50;;;;;;5050434;28;19925;-85
2023/05/20 09:03:35;;;;;;;;;;;20.10;97.80;;;;;;5043004;28;19952;-84
2023/05/20 09:06:09;;;;;;;;;;;19.90;97.50;;;;;;5040666;28;19933;-88
2023/05/20 09:08:38;;;;;;;;;;;20.10;97.80;;;;;;5041712;28;19936;-86
2023/05/20 09:11:05;;;;;;;;;;;20.20;97.50;;;;;;5042599;28;20261;-83
2023/05/20 09:13:33;;;;;;;;;;;20.40;97.80;;;;;;5048647;28;20008;-83
2023/05/20 09:16:01;;;;;;;;;;;20.40;97.20;;;;;;5042628;28;19984;-86
2023/05/20 09:18:29;;;;;;;;;;;20.50;97.10;;;;;;5044944;28;19925;-85
2023/05/20 09:20:57;;;;;;;;;;;20.70;96.60;;;;;;5042213;28;20407;-85
2023/05/20 09:23:26;;;;;;;;;;;20.60;96.90;;;;;;5041203;28;20400;-85
2023/05/20 09:25:55;;;;;;;;;;;20.60;96.90;;;;;;5054400;28;19944;-85
2023/05/20 09:28:23;;;;;;;;;;;20.70;97.00;;;;;;5036890;28;19929;-85
2023/05/20 09:30:51;;;;;;;;;;;20.50;96.80;;;;;;5038871;28;19951;-84
2023/05/20 09:33:19;;;;;;;;;;;20.20;96.50;;;;;;5038380;28;19917;-85
2023/05/20 09:35:47;;;;;;;;;;;20.20;96.80;;;;;;5037160;28;20328;-85
2023/05/20 09:38:14;;;;;;;;;;;19.90;97.10;;;;;;5040374;28;19956;-86
2023/05/20 09:40:42;;;;;;;;;;;18.70;97.20;;;;;;5038513;28;19913;-84
2023/05/20 09:43:12;;;;;;;;;;;19.90;97.90;;;;;;5036086;28;19925;-83
2023/05/20 09:45:39;;;;;;;;;;;20.30;97.50;;;;;;5037461;28;19936;-86
2023/05/20 09:48:09;;;;;;;;;;;20.20;97.50;;;;;;5054115;28;19988;-85
2023/05/20 09:50:36;;;;;;;;;;;20.40;97.20;;;;;;5040254;28;20007;-84
2023/05/20 09:53:04;;;;;;;;;;;20.40;97.00;;;;;;5043339;28;19935;-85
2023/05/20 09:55:31;;;;;;;;;;;20.40;97.20;;;;;;5042881;28;19925;-85
2023/05/20 09:58:02;;;;;;;;;;;20.30;97.30;;;;;;5045665;28;19929;-84
2023/05/20 10:00:30;;;;;;;;;;;20.20;97.60;;;;;;5026281;28;19933;-85
2023/05/20 10:02:59;;;;;;;;;;;20.00;97.50;;;;;;5032417;28;19936;-85
2023/05/20 10:05:29;;;;;;;;;;;20.10;97.50;;;;;;5045602;28;19933;-86
2023/05/20 10:08:06;;;;;;;;;;;20.20;97.40;;;;;;5065610;28;19932;-86
2023/05/20 10:10:37;;;;;;;;;;;20.30;97.30;;;;;;5069512;28;20340;-86
2023/05/20 10:13:10;;;;;;;;;;;19.80;97.30;;;;;;5069434;28;19925;-86
2023/05/20 10:15:44;;;;;;;;;;;20.00;97.90;;;;;;5065783;28;19933;-85
2023/05/20 10:18:16;;;;;;;;;;;20.10;97.90;;;;;;5066172;28;19928;-86
2023/05/20 10:20:50;;;;;;;;;;;20.60;97.40;;;;;;5066967;28;19929;-86
2023/05/20 10:23:22;;;;;;;;;;;20.50;97.30;;;;;;5067518;28;19952;-85
2023/05/20 10:25:51;;;;;;;;;;;20.70;96.90;;;;;;5068676;28;19925;-87
2023/05/20 10:28:26;;;;;;;;;;;20.70;96.50;;;;;;5069312;28;19991;-87
2023/05/20 10:30:55;;;;;;;;;;;20.40;97.00;;;;;;5062896;28;19913;-84
2023/05/20 10:33:26;;;;;;;;;;;20.10;97.50;;;;;;5047520;28;19926;-84
2023/05/20 10:35:54;;;;;;;;;;;20.20;97.50;;;;;;5046805;28;19929;-83
2023/05/20 10:38:21;;;;;;;;;;;20.20;97.20;;;;;;5047201;28;19929;-84
2023/05/20 10:40:56;;;;;;;;;;;20.10;97.70;;;;;;5042540;28;19932;-84
2023/05/20 10:43:29;;;;;;;;;;;20.30;97.90;;;;;;5048951;28;19933;-84
2023/05/20 10:46:04;;;;;;;;;;;20.30;97.50;;;;;;5044913;28;20004;-83
2023/05/20 10:48:34;;;;;;;;;;;20.40;97.60;;;;;;5055791;28;20023;-85
2023/05/20 10:51:03;;;;;;;;;;;20.30;97.40;;;;;;5047502;28;19952;-85
2023/05/20 10:53:38;;;;;;;;;;;20.30;97.70;;;;;;5039172;28;19929;-85
2023/05/20 10:56:06;;;;;;;;;;;21.10;98.30;;;;;;5038685;28;19929;-84
2023/05/20 10:58:37;;;;;;;;;;;20.30;97.60;;;;;;5045971;28;19937;-85
2023/05/20 11:01:06;;;;;;;;;;;20.40;98.00;;;;;;5043313;28;19964;-85
2023/05/20 11:03:35;;;;;;;;;;;20.60;98.00;;;;;;5041428;28;19979;-85
2023/05/20 11:06:02;;;;;;;;;;;20.70;98.10;;;;;;5041849;28;19987;-85
2023/05/20 11:08:32;;;;;;;;;;;20.90;97.50;;;;;;5044188;28;20393;-88
2023/05/20 11:10:59;;;;;;;;;;;20.60;97.60;;;;;;5064303;28;19975;-87
2023/05/20 11:13:27;;;;;;;;;;;20.10;97.40;;;;;;5062053;28;19925;-85
2023/05/20 11:15:55;;;;;;;;;;;19.90;97.70;;;;;;5061440;28;20023;-85
2023/05/20 11:18:28;;;;;;;;;;;19.70;98.10;;;;;;5054609;28;19936;-89
2023/05/20 11:20:55;;;;;;;;;;;19.70;98.20;;;;;;5044361;28;19960;-86
2023/05/20 11:23:26;;;;;;;;;;;19.50;98.40;;;;;;5040291;28;20190;-88
2023/05/20 11:25:53;;;;;;;;;;;19.70;98.70;;;;;;5040372;28;19936;-84
2023/05/20 11:28:21;;;;;;;;;;;19.80;98.60;;;;;;5067373;22;19929;-74
2023/05/20 11:30:48;;;;;;;;;;;19.50;98.70;;;;;;5068511;28;19971;-74
2023/05/20 11:33:15;;;;;;;;;;;20.00;99.20;;;;;;5067098;28;20274;-74
2023/05/20 11:35:46;;;;;;;;;;;20.10;98.60;;;;;;5102232;22;19928;-86
2023/05/20 11:38:14;;;;;;;;;;;20.10;99.10;;;;;;5088304;28;19931;-88
2023/05/20 11:40:43;;;;;;;;;;;20.30;99.30;;;;;;5081030;28;19928;-86
2023/05/20 11:43:11;;;;;;;;;;;20.60;99.10;;;;;;5063169;28;19977;-85
2023/05/20 11:45:39;;;;;;;;;;;20.50;98.50;;;;;;5080893;28;19928;-85
2023/05/20 11:48:07;;;;;;;;;;;20.50;98.50;;;;;;5061260;28;19932;-84
2023/05/20 11:50:38;;;;;;;;;;;20.40;98.50;;;;;;5063534;28;19986;-84
2023/05/20 11:53:07;;;;;;;;;;;20.30;98.70;;;;;;5061250;28;20037;-84
2023/05/20 11:55:34;;;;;;;;;;;20.20;98.80;;;;;;5062580;28;19940;-87
2023/05/20 11:58:03;;;;;;;;;;;20.60;98.80;;;;;;5063154;28;19935;-86
2023/05/20 12:00:30;;;;;;;;;;;20.60;99.20;;;;;;5061526;28;20304;-85
2023/05/20 12:02:57;;;;;;;;;;;20.80;99.50;;;;;;5071164;28;20008;-85
2023/05/20 12:05:25;;;;;;;;;;;24.60;99.90;;;;;;5065908;28;19924;-87
2023/05/20 12:07:52;;;;;;;;;;;21.70;98.20;;;;;;5061627;28;19929;-84
2023/05/20 12:10:23;;;;;;;;;;;21.70;98.30;;;;;;5064919;28;19928;-86
2023/05/20 12:12:52;;;;;;;;;;;21.90;97.90;;;;;;5066655;28;19964;-87
2023/05/20 12:15:19;;;;;;;;;;;21.60;98.20;;;;;;5064115;28;19924;-87
2023/05/20 12:17:48;;;;;;;;;;;21.70;98.20;;;;;;5058460;28;19924;-86
2023/05/20 12:20:17;;;;;;;;;;;21.80;98.30;;;;;;5063014;28;19936;-83
2023/05/20 12:22:44;;;;;;;;;;;21.90;98.00;;;;;;5061662;28;20015;-86
2023/05/20 12:25:12;;;;;;;;;;;21.90;98.00;;;;;;5064157;28;19929;-87
2023/05/20 12:27:41;;;;;;;;;;;22.40;98.20;;;;;;5062018;28;19951;-87
2023/05/20 12:30:11;;;;;;;;;;;22.40;98.20;;;;;;5062020;28;20563;-85
2023/05/20 12:32:38;;;;;;;;;;;22.50;97.90;;;;;;5061269;28;19951;-85
2023/05/20 12:35:06;;;;;;;;;;;22.50;97.90;;;;;;5060519;28;19939;-85
2023/05/20 12:37:33;;;;;;;;;;;22.60;98.10;;;;;;5060433;28;20019;-85
2023/05/20 12:40:00;;;;;;;;;;;22.80;98.40;;;;;;5058340;28;20085;-84
2023/05/20 12:42:27;;;;;;;;;;;22.90;97.50;;;;;;5057177;28;19931;-85
2023/05/20 12:44:58;;;;;;;;;;;23.00;97.60;;;;;;5056556;28;19925;-84
2023/05/20 12:47:25;;;;;;;;;;;23.50;97.40;;;;;;5058300;28;19932;-84
2023/05/20 12:49:53;;;;;;;;;;;23.50;96.10;;;;;;5059429;28;19934;-86
2023/05/20 12:52:23;;;;;;;;;;;23.40;96.20;;;;;;5061785;28;19928;-84
2023/05/20 12:54:50;;;;;;;;;;;22.70;96.20;;;;;;5060704;28;19932;-84
2023/05/20 12:57:18;;;;;;;;;;;22.70;96.50;;;;;;5060875;28;20485;-84
2023/05/20 12:59:45;;;;;;;;;;;22.70;96.70;;;;;;5061760;28;19942;-85
2023/05/20 13:02:16;;;;;;;;;;;22.80;96.20;;;;;;5044969;28;19924;-84
2023/05/20 13:04:43;;;;;;;;;;;22.80;96.40;;;;;;5054992;28;19991;-82
2023/05/20 13:07:11;;;;;;;;;;;22.60;96.20;;;;;;5058387;28;20103;-83
2023/05/20 13:09:38;;;;;;;;;;;22.60;96.50;;;;;;5046081;28;19940;-84
2023/05/20 13:12:07;;;;;;;;;;;22.50;96.40;;;;;;5056996;28;20019;-85
2023/05/20 13:14:34;;;;;;;;;;;22.40;96.60;;;;;;5075597;28;19986;-85
2023/05/20 13:17:01;;;;;;;;;;;22.50;96.60;;;;;;5056147;28;19978;-84
2023/05/20 13:19:30;;;;;;;;;;;22.60;96.50;;;;;;5062173;28;19933;-85
2023/05/20 13:21:56;;;;;;;;;;;22.50;96.50;;;;;;5063215;28;19925;-85
2023/05/20 13:24:24;;;;;;;;;;;22.70;97.20;;;;;;5062095;28;19963;-85
2023/05/20 13:26:51;;;;;;;;;;;23.20;96.60;;;;;;5061800;28;19929;-85
2023/05/20 13:29:18;;;;;;;;;;;23.00;95.60;;;;;;5060688;28;20384;-84
2023/05/20 13:31:47;;;;;;;;;;;22.40;95.90;;;;;;5063478;28;19928;-85
2023/05/20 13:34:14;;;;;;;;;;;22.50;96.10;;;;;;5059828;28;19928;-86
2023/05/20 13:36:42;;;;;;;;;;;22.20;96.00;;;;;;5061569;28;20031;-86
2023/05/20 13:39:09;;;;;;;;;;;22.30;96.30;;;;;;5066080;28;19971;-84
2023/05/20 13:41:36;;;;;;;;;;;22.10;95.60;;;;;;5065379;28;19912;-85
2023/05/20 13:44:03;;;;;;;;;;;21.90;96.00;;;;;;5061690;28;19924;-86
2023/05/20 13:46:30;;;;;;;;;;;21.40;96.20;;;;;;5059642;28;19913;-84
2023/05/20 13:48:57;;;;;;;;;;;21.50;96.50;;;;;;5051261;28;19936;-84
2023/05/20 13:51:24;;;;;;;;;;;21.40;96.60;;;;;;5061063;28;20027;-85
2023/05/20 13:53:53;;;;;;;;;;;21.10;96.40;;;;;;5058127;28;19924;-85
2023/05/20 13:56:21;;;;;;;;;;;21.10;96.70;;;;;;5060723;28;19935;-85
2023/05/20 13:58:48;;;;;;;;;;;21.20;96.40;;;;;;5061012;28;19924;-85
2023/05/20 14:01:15;;;;;;;;;;;21.20;96.60;;;;;;5059009;28;19947;-85
2023/05/20 14:03:42;;;;;;;;;;;21.30;96.70;;;;;;5062975;28;20295;-85
2023/05/20 14:06:10;;;;;;;;;;;21.30;96.60;;;;;;5076318;28;20409;-85
2023/05/20 14:08:40;;;;;;;;;;;21.20;96.40;;;;;;5063692;28;19929;-84
2023/05/20 14:11:08;;;;;;;;;;;21.20;96.50;;;;;;5063111;28;20441;-84
2023/05/20 14:13:35;;;;;;;;;;;21.00;96.60;;;;;;5061552;28;19986;-85
2023/05/20 14:16:02;;;;;;;;;;;21.10;97.00;;;;;;5054568;28;20031;-83
2023/05/20 14:18:29;;;;;;;;;;;21.20;96.70;;;;;;5079498;28;19932;-84
2023/05/20 14:20:56;;;;;;;;;;;21.30;97.10;;;;;;5059967;28;19990;-83
2023/05/20 14:23:23;;;;;;;;;;;21.30;96.70;;;;;;5061225;28;19923;-83
2023/05/20 14:25:50;;;;;;;;;;;21.30;96.70;;;;;;5064352;28;19934;-84